Ana Sayfa
METAR-TAF:

METAR-TAF

Havaalanları :

Perry Lefors Field

Pampa, Teksas, Amerika Birleşik Devletleri

Enlem: 35-36-46N, Boylam: 100-59-46W, yükseklik: 989 m

Güncel hava durumu gözlemi

Rapor saat 21:55 UTC de 38 dakika önce yapıldı.
Rüzgar doğudan 10 kt ve 16 kt'a kadar ani rüzgarlar
Sıcaklık 25°C
Nem 65%
Basınç 1016 hPa
Görüş mesafesi: 16.1 km
1700 ft yükseklikte parçalı bulutlu
2300 ft yükseklikte parçalı bulutlu
12000 ft yükseklikte parçalı çok bulutlu
hafif yağmur

METAR: KPPA 162155Z AUTO 08010G16KT 10SM -RA SCT017 SCT023 BKN120 25/18 A3000 RMK AO2 LTG DSNT E SE AND W T02500178

Saat: 17:33 (22:33 UTC)


TAF: eksik

4.000'den fazla havaalanı için hava durumu gözlemleri ve tahminleri (METAR ve TAF raporları).

Kullanılabilir istasyonlar harita üzerinde sarı ve kırmızı noktalarla gösterilir.

İstasyonun adını görmek için fareyi noktanın üzerinde gezdirin.

Sonrasında hava gözlem ve tahminlerini görmek için tıklayın.

Haritayı değiştirmek için: yaklaştırmak için siyah artı işaretli yeşil düğmeye ve uzaklaştırmak için de eksi işaretli düğmeye hızla tıklayın; bitişik haritalar için yeşil okları kullanın.


METAR-TAF: